createdAt,value
2019-05-12T00:00:11.824Z,3.07
2019-05-12T00:02:40.967Z,3.90
2019-05-12T00:05:10.188Z,3.70
2019-05-12T00:07:39.563Z,6.20
2019-05-12T00:10:21.026Z,2.40
2019-05-12T00:12:51.403Z,3.87
2019-05-12T00:15:20.801Z,4.07
2019-05-12T00:17:49.976Z,4.20
2019-05-12T00:20:28.506Z,2.67
2019-05-12T00:23:00.694Z,3.77
2019-05-12T00:25:29.577Z,4.10
2019-05-12T00:27:58.792Z,6.07
2019-05-12T00:30:40.700Z,3.93
2019-05-12T00:33:09.778Z,5.07
2019-05-12T00:35:39.210Z,4.33
2019-05-12T00:38:09.286Z,4.90
2019-05-12T00:40:48.119Z,3.60
2019-05-12T00:43:18.755Z,3.17
2019-05-12T00:45:48.408Z,3.43
2019-05-12T00:48:18.534Z,3.40
2019-05-12T00:50:58.302Z,5.43
2019-05-12T00:53:38.965Z,3.00
2019-05-12T00:56:01.504Z,6.50
2019-05-12T00:58:30.337Z,3.93
2019-05-12T01:01:12.697Z,4.57
2019-05-12T01:03:43.257Z,2.67
2019-05-12T01:06:12.677Z,3.43
2019-05-12T01:08:43.742Z,3.80
2019-05-12T01:11:22.130Z,3.43
2019-05-12T01:13:51.304Z,3.03
2019-05-12T01:16:20.641Z,3.23
2019-05-12T01:18:49.786Z,4.40
2019-05-12T01:21:28.917Z,3.83
2019-05-12T01:24:03.290Z,3.87
2019-05-12T01:26:32.878Z,3.93
2019-05-12T01:29:03.033Z,4.67
2019-05-12T01:31:54.943Z,2.77
2019-05-12T01:34:24.666Z,5.60
2019-05-12T01:36:58.553Z,5.63
2019-05-12T01:39:31.138Z,2.77
2019-05-12T01:42:09.532Z,4.43
2019-05-12T01:44:38.736Z,4.33
2019-05-12T01:47:08.348Z,3.83
2019-05-12T01:49:38.239Z,3.67
2019-05-12T01:52:17.811Z,3.87
2019-05-12T01:54:48.341Z,4.73
2019-05-12T01:57:19.208Z,6.00
2019-05-12T01:59:51.092Z,5.20
2019-05-12T02:05:09.322Z,4.00
2019-05-12T02:07:50.302Z,2.70
2019-05-12T02:10:21.158Z,3.17
2019-05-12T02:12:59.686Z,5.40
2019-05-12T02:15:28.725Z,5.37
2019-05-12T02:17:59.255Z,3.80
2019-05-12T02:20:28.850Z,5.03
2019-05-12T02:23:11.050Z,3.90
2019-05-12T02:25:42.204Z,4.57
2019-05-12T02:28:11.902Z,6.57
2019-05-12T02:30:43.063Z,6.13
2019-05-12T02:33:15.938Z,4.63
2019-05-12T02:35:57.326Z,5.97
2019-05-12T02:38:46.997Z,4.03
2019-05-12T02:41:16.099Z,7.00
2019-05-12T02:43:45.900Z,5.37
2019-05-12T02:46:15.773Z,5.97
2019-05-12T02:48:55.014Z,5.37
2019-05-12T02:51:24.807Z,6.27
2019-05-12T02:53:55.480Z,10.10
2019-05-12T02:56:27.091Z,4.80
2019-05-12T02:59:05.577Z,4.90
2019-05-12T03:01:36.048Z,4.90
2019-05-12T03:04:05.965Z,9.83
2019-05-12T03:06:38.122Z,6.50
2019-05-12T03:09:16.076Z,5.13
2019-05-12T03:11:46.179Z,5.77
2019-05-12T03:14:15.905Z,4.80
2019-05-12T03:16:45.494Z,4.13
2019-05-12T03:19:25.298Z,6.27
2019-05-12T03:21:54.863Z,6.17
2019-05-12T03:24:25.009Z,7.07
2019-05-12T03:27:04.114Z,6.43
2019-05-12T03:29:44.944Z,9.80
2019-05-12T03:32:17.670Z,5.63
2019-05-12T03:34:57.358Z,4.87
2019-05-12T03:37:30.697Z,5.10
2019-05-12T03:40:05.822Z,4.30
2019-05-12T03:42:35.543Z,4.73
2019-05-12T03:45:08.002Z,5.20
2019-05-12T03:47:37.095Z,7.10
2019-05-12T03:50:15.734Z,4.80
2019-05-12T03:52:45.110Z,5.60
2019-05-12T03:55:30.331Z,7.17
2019-05-12T03:57:45.236Z,5.03
2019-05-12T04:00:24.644Z,4.87
2019-05-12T04:02:55.613Z,5.47
2019-05-12T04:05:27.064Z,6.77
2019-05-12T04:07:58.364Z,4.03
2019-05-12T04:10:37.110Z,5.80
2019-05-12T04:13:06.681Z,4.47
2019-05-12T04:15:36.037Z,3.80
2019-05-12T04:18:06.165Z,3.83
2019-05-12T04:20:36.512Z,5.40
2019-05-12T04:23:08.586Z,4.90
2019-05-12T04:25:51.209Z,4.53
2019-05-12T04:28:08.866Z,6.07
2019-05-12T04:30:50.966Z,5.40
2019-05-12T04:33:20.114Z,5.03
2019-05-12T04:35:49.161Z,4.97
2019-05-12T04:38:19.482Z,7.10
2019-05-12T04:40:57.502Z,4.03
2019-05-12T04:43:26.413Z,3.87
2019-05-12T04:45:57.635Z,6.00
2019-05-12T04:48:27.869Z,5.43
2019-05-12T04:51:06.112Z,4.93
2019-05-12T04:53:37.198Z,6.67
2019-05-12T04:56:15.622Z,6.30
2019-05-12T04:58:37.360Z,5.60
2019-05-12T05:01:15.875Z,4.97
2019-05-12T05:03:46.482Z,5.43
2019-05-12T05:06:15.394Z,4.07
2019-05-12T05:08:44.639Z,4.50
2019-05-12T05:11:25.078Z,5.33
2019-05-12T05:13:54.768Z,4.83
2019-05-12T05:16:24.820Z,4.10
2019-05-12T05:18:54.450Z,6.40
2019-05-12T05:21:23.976Z,4.43
2019-05-12T05:23:53.735Z,3.97
2019-05-12T05:26:27.833Z,6.87
2019-05-12T05:28:54.342Z,4.67
2019-05-12T05:31:35.483Z,5.67
2019-05-12T05:34:05.011Z,5.37
2019-05-12T05:36:36.697Z,3.60
2019-05-12T05:39:08.593Z,4.93
2019-05-12T05:44:21.380Z,5.83
2019-05-12T05:46:54.522Z,5.77
2019-05-12T05:49:23.846Z,6.73
2019-05-12T05:52:03.552Z,2.50
2019-05-12T05:54:36.401Z,4.70
2019-05-12T05:57:06.207Z,4.30
2019-05-12T05:59:36.875Z,3.03
2019-05-12T06:02:15.135Z,4.90
2019-05-12T06:04:49.564Z,3.33
2019-05-12T06:07:14.986Z,5.20
2019-05-12T06:09:43.914Z,3.73
2019-05-12T06:12:23.902Z,5.63
2019-05-12T06:14:55.239Z,3.53
2019-05-12T06:17:24.026Z,3.83
2019-05-12T06:19:53.845Z,6.50
2019-05-12T06:22:34.553Z,6.93
2019-05-12T06:25:04.834Z,5.97
2019-05-12T06:27:35.982Z,8.23
2019-05-12T06:30:06.403Z,7.63
2019-05-12T06:35:24.101Z,8.87
2019-05-12T06:37:58.447Z,10.07
2019-05-12T06:40:24.461Z,10.97
2019-05-12T06:45:42.584Z,8.90
2019-05-12T06:48:08.357Z,13.00
2019-05-12T06:50:39.375Z,11.20
2019-05-12T06:53:20.196Z,10.50
2019-05-12T06:55:48.143Z,9.70
2019-05-12T06:58:26.401Z,13.90
2019-05-12T07:01:10.286Z,15.23
2019-05-12T07:03:37.015Z,15.33
2019-05-12T07:06:09.265Z,12.77
2019-05-12T07:08:38.511Z,15.80
2019-05-12T07:11:16.468Z,14.47
2019-05-12T07:13:45.389Z,8.80
2019-05-12T07:16:22.058Z,11.03
2019-05-12T07:23:14.234Z,11.47
2019-05-12T07:26:44.282Z,12.03
2019-05-12T07:29:14.574Z,10.27
2019-05-12T07:38:25.702Z,10.70
2019-05-12T07:44:03.559Z,10.93
2019-05-12T09:09:07.303Z,3.83
2019-05-12T09:11:36.249Z,3.70
2019-05-12T09:14:05.919Z,6.57
2019-05-12T09:16:35.762Z,7.27
2019-05-12T09:19:05.117Z,7.10
2019-05-12T09:21:38.411Z,5.60
2019-05-12T09:24:21.874Z,5.33
2019-05-12T09:26:47.874Z,7.67
2019-05-12T09:29:17.033Z,7.43
2019-05-12T09:41:52.444Z,7.13
2019-05-12T09:44:20.378Z,4.73
2019-05-12T09:46:50.683Z,5.20
2019-05-12T09:49:24.998Z,7.17
2019-05-12T09:51:54.383Z,4.70
2019-05-12T09:54:40.588Z,6.43
2019-05-12T09:57:07.728Z,8.23
2019-05-12T09:59:36.751Z,8.40
2019-05-12T10:02:10.549Z,5.13
2019-05-12T10:04:56.457Z,6.30
2019-05-12T10:07:30.434Z,5.87
2019-05-12T10:10:00.673Z,5.17
2019-05-12T10:13:10.913Z,4.03
2019-05-12T10:36:48.809Z,4.30
2019-05-12T10:39:20.617Z,6.37
2019-05-12T10:42:26.516Z,3.80
2019-05-12T10:44:54.505Z,4.00
2019-05-12T10:48:03.409Z,5.10
2019-05-12T10:51:30.613Z,5.23
2019-05-12T10:56:59.876Z,4.53
2019-05-12T12:37:50.617Z,1.43
2019-05-12T12:40:19.784Z,2.03
2019-05-12T12:42:53.844Z,3.00
2019-05-12T12:45:51.218Z,2.13
2019-05-12T12:48:25.494Z,3.93
2019-05-12T12:50:53.679Z,2.00
2019-05-12T12:53:23.819Z,3.40
2019-05-12T12:56:04.374Z,3.70
2019-05-12T12:58:34.505Z,1.30
2019-05-12T13:01:14.184Z,2.63
2019-05-12T13:03:43.505Z,3.40
2019-05-12T13:14:38.310Z,2.27
2019-05-12T13:17:36.415Z,3.23
2019-05-12T13:20:00.982Z,3.20
2019-05-12T13:22:30.089Z,1.87
2019-05-12T13:25:06.505Z,2.63
2019-05-12T13:30:19.739Z,4.07
2019-05-12T15:34:17.289Z,2.40
2019-05-12T15:37:09.773Z,3.17
2019-05-12T15:39:39.057Z,2.20
2019-05-12T15:42:14.158Z,1.47
2019-05-12T15:44:46.940Z,10.83
2019-05-12T15:47:29.998Z,2.67
2019-05-12T15:50:05.838Z,2.60
2019-05-12T15:52:42.029Z,2.87
2019-05-12T15:55:25.607Z,1.50
2019-05-12T15:57:58.603Z,1.27
2019-05-12T16:00:28.262Z,2.33
2019-05-12T16:03:06.388Z,3.67
2019-05-12T16:55:29.904Z,2.93
2019-05-12T17:00:49.724Z,3.57
2019-05-12T17:03:23.824Z,2.77
2019-05-12T17:06:00.773Z,1.83
2019-05-12T17:08:54.360Z,2.10
2019-05-12T17:11:58.357Z,1.37
2019-05-12T17:14:29.754Z,1.57
2019-05-12T17:17:01.046Z,1.87
2019-05-12T17:20:13.856Z,1.63
2019-05-12T17:22:54.263Z,1.33
2019-05-12T17:25:57.195Z,1.83
2019-05-12T17:28:50.512Z,3.37
2019-05-12T17:31:54.400Z,2.90
2019-05-12T17:34:14.378Z,1.90
2019-05-12T17:37:00.369Z,4.33
2019-05-12T17:39:55.668Z,1.60
2019-05-12T17:42:27.804Z,3.03
2019-05-12T17:45:03.954Z,1.70
2019-05-12T17:47:32.004Z,1.33
2019-05-12T17:52:58.647Z,1.27
2019-05-12T17:55:24.137Z,3.50
2019-05-12T17:57:56.351Z,1.80
2019-05-12T18:00:41.381Z,2.87
2019-05-12T18:03:18.169Z,2.13
2019-05-12T18:05:42.480Z,2.20
2019-05-12T18:08:32.320Z,4.53
2019-05-12T18:10:55.799Z,2.53
2019-05-12T18:13:27.987Z,2.00
2019-05-12T18:15:55.765Z,1.87
2019-05-12T18:18:37.963Z,1.37
2019-05-12T18:21:13.228Z,4.47
2019-05-12T18:23:45.192Z,2.03
2019-05-12T18:26:16.217Z,2.63
2019-05-12T18:28:57.003Z,3.47
2019-05-12T18:31:35.382Z,2.47
